createdAt,value
2019-03-31T00:01:55.225Z,67.10
2019-03-31T00:04:22.919Z,68.10
2019-03-31T00:06:50.804Z,65.83
2019-03-31T00:09:18.607Z,69.67
2019-03-31T00:11:46.487Z,64.53
2019-03-31T00:14:14.196Z,61.20
2019-03-31T00:16:42.042Z,56.67
2019-03-31T00:19:09.929Z,63.20
2019-03-31T00:21:37.953Z,66.90
2019-03-31T00:24:05.747Z,55.90
2019-03-31T00:26:33.491Z,57.53
2019-03-31T00:29:01.222Z,57.23
2019-03-31T00:31:29.024Z,53.20
2019-03-31T00:33:56.758Z,61.47
2019-03-31T00:36:24.559Z,57.53
2019-03-31T00:38:52.333Z,52.53
2019-03-31T00:41:20.088Z,54.70
2019-03-31T00:43:47.908Z,51.90
2019-03-31T00:46:15.641Z,50.47
2019-03-31T00:48:43.526Z,50.07
2019-03-31T00:51:11.362Z,48.80
2019-03-31T00:53:39.101Z,47.30
2019-03-31T00:56:06.833Z,52.90
2019-03-31T00:58:34.538Z,48.67
2019-03-31T01:01:35.459Z,58.73
2019-03-31T01:03:50.719Z,55.07
2019-03-31T01:06:19.520Z,62.83
2019-03-31T01:08:47.349Z,73.77
2019-03-31T01:11:15.518Z,65.87
2019-03-31T01:13:43.289Z,60.90
2019-03-31T01:16:12.670Z,51.17
2019-03-31T01:18:40.568Z,49.17
2019-03-31T01:21:08.306Z,52.83
2019-03-31T01:23:36.093Z,56.93
2019-03-31T01:26:03.767Z,84.37
2019-03-31T01:28:31.779Z,89.43
2019-03-31T01:30:59.583Z,91.17
2019-03-31T01:33:27.669Z,93.37
2019-03-31T01:35:55.392Z,99.93
2019-03-31T01:38:23.119Z,123.90
2019-03-31T01:40:50.962Z,137.37
2019-03-31T01:43:18.767Z,148.23
2019-03-31T01:45:46.612Z,137.80
2019-03-31T01:48:14.377Z,110.13
2019-03-31T01:50:42.185Z,130.93
2019-03-31T01:53:09.888Z,116.73
2019-03-31T01:55:37.692Z,106.17
2019-03-31T01:58:05.432Z,103.20
2019-03-31T02:00:41.716Z,100.83
2019-03-31T02:03:09.452Z,99.10
2019-03-31T02:05:37.231Z,98.73
2019-03-31T02:08:04.976Z,96.90
2019-03-31T02:10:32.696Z,103.27
2019-03-31T02:13:00.445Z,103.37
2019-03-31T02:15:28.410Z,98.07
2019-03-31T02:17:56.261Z,112.47
2019-03-31T02:20:24.093Z,118.57
2019-03-31T02:22:51.821Z,114.57
2019-03-31T02:25:19.540Z,106.17
2019-03-31T02:27:47.370Z,99.97
2019-03-31T02:30:15.215Z,102.17
2019-03-31T02:32:43.006Z,112.00
2019-03-31T02:35:10.825Z,99.40
2019-03-31T02:37:38.606Z,101.17
2019-03-31T02:40:06.527Z,103.73
2019-03-31T02:42:34.402Z,104.90
2019-03-31T02:45:02.246Z,94.90
2019-03-31T02:47:29.978Z,92.37
2019-03-31T02:49:57.680Z,103.40
2019-03-31T02:52:25.608Z,93.57
2019-03-31T02:54:53.392Z,97.37
2019-03-31T02:57:21.137Z,106.80
2019-03-31T02:59:48.918Z,102.77
2019-03-31T03:02:16.616Z,91.93
2019-03-31T03:04:44.308Z,94.20
2019-03-31T03:07:12.172Z,86.70
2019-03-31T03:09:40.006Z,91.93
2019-03-31T03:12:07.889Z,94.13
2019-03-31T03:14:35.737Z,97.37
2019-03-31T03:17:03.490Z,90.67
2019-03-31T03:19:31.269Z,90.83
2019-03-31T03:21:59.142Z,96.73
2019-03-31T03:24:27.005Z,90.07
2019-03-31T03:26:54.863Z,105.03
2019-03-31T03:29:22.669Z,107.17
2019-03-31T03:31:50.617Z,114.43
2019-03-31T03:34:18.424Z,109.97
2019-03-31T03:36:46.162Z,100.83
2019-03-31T03:39:13.994Z,111.80
2019-03-31T03:41:41.795Z,107.73
2019-03-31T03:44:09.505Z,107.27
2019-03-31T03:46:37.271Z,98.80
2019-03-31T03:49:05.217Z,101.10
2019-03-31T03:51:33.133Z,102.23
2019-03-31T03:54:00.871Z,105.70
2019-03-31T03:56:29.260Z,96.87
2019-03-31T03:58:57.359Z,96.40
2019-03-31T04:01:27.755Z,103.90
2019-03-31T04:03:55.541Z,100.17
2019-03-31T04:06:23.272Z,111.07
2019-03-31T04:08:50.993Z,99.43
2019-03-31T04:11:21.538Z,91.57
2019-03-31T04:13:48.762Z,116.55
2019-03-31T04:16:16.527Z,98.30
2019-03-31T04:18:44.232Z,90.47
2019-03-31T04:21:11.946Z,91.10
2019-03-31T04:23:39.685Z,95.20
2019-03-31T04:26:07.840Z,88.80
2019-03-31T04:28:35.380Z,88.55
2019-03-31T04:31:03.414Z,95.38
2019-03-31T04:33:49.556Z,84.77
2019-03-31T04:36:00.581Z,84.63
2019-03-31T04:38:28.297Z,82.37
2019-03-31T04:40:56.427Z,84.28
2019-03-31T04:43:24.339Z,80.37
2019-03-31T04:45:52.185Z,81.10
2019-03-31T04:48:19.909Z,75.07
2019-03-31T04:50:47.908Z,78.00
2019-03-31T04:53:15.738Z,82.70
2019-03-31T04:55:43.578Z,80.97
2019-03-31T04:58:11.333Z,85.03
2019-03-31T05:00:39.394Z,217.60
2019-03-31T05:03:07.495Z,143.13
2019-03-31T05:05:35.226Z,90.90
2019-03-31T05:08:02.991Z,84.17
2019-03-31T05:10:30.692Z,72.60
2019-03-31T05:12:58.394Z,77.70
2019-03-31T05:15:26.094Z,84.77
2019-03-31T05:17:53.869Z,106.23
2019-03-31T05:20:21.744Z,89.70
2019-03-31T05:22:52.697Z,148.53
2019-03-31T05:25:19.016Z,92.80
2019-03-31T05:27:46.878Z,117.33
2019-03-31T05:30:14.684Z,133.90
2019-03-31T05:32:42.510Z,125.30
2019-03-31T05:35:10.305Z,176.13
2019-03-31T05:37:50.163Z,153.47
2019-03-31T05:40:07.555Z,125.90
2019-03-31T05:42:35.281Z,205.20
2019-03-31T05:45:03.211Z,144.03
2019-03-31T05:47:31.070Z,89.53
2019-03-31T05:49:59.032Z,109.97
2019-03-31T05:52:26.897Z,94.37
2019-03-31T05:54:54.666Z,135.50
2019-03-31T05:57:22.409Z,123.80
2019-03-31T05:59:50.195Z,156.27
2019-03-31T06:02:17.973Z,92.20
2019-03-31T06:04:45.827Z,82.97
2019-03-31T06:07:13.588Z,83.63
2019-03-31T06:09:41.300Z,146.90
2019-03-31T06:12:09.037Z,120.07
2019-03-31T06:14:36.806Z,72.67
2019-03-31T06:17:04.543Z,71.27
2019-03-31T06:19:32.336Z,80.80
2019-03-31T06:22:00.201Z,83.90
2019-03-31T06:24:28.122Z,73.77
2019-03-31T06:26:55.854Z,83.30
2019-03-31T06:29:23.832Z,78.53
2019-03-31T06:31:51.575Z,70.43
2019-03-31T06:34:19.325Z,72.27
2019-03-31T06:36:47.113Z,64.87
2019-03-31T06:39:14.851Z,66.87
2019-03-31T06:41:42.583Z,66.37
2019-03-31T06:44:10.392Z,90.67
2019-03-31T06:46:38.318Z,67.07
2019-03-31T06:49:06.158Z,65.07
2019-03-31T06:51:34.019Z,68.20
2019-03-31T06:54:01.968Z,68.50
2019-03-31T06:56:29.835Z,80.63
2019-03-31T06:58:57.641Z,71.33
2019-03-31T07:01:25.491Z,77.63
2019-03-31T07:03:53.253Z,74.73
2019-03-31T07:06:21.064Z,70.83
2019-03-31T07:08:48.937Z,65.07
2019-03-31T07:11:16.745Z,57.60
2019-03-31T07:13:44.505Z,57.90
2019-03-31T07:16:12.237Z,57.77
2019-03-31T07:18:40.071Z,65.80
2019-03-31T07:21:07.817Z,62.07
2019-03-31T07:23:35.719Z,61.67
2019-03-31T07:26:03.549Z,58.70
2019-03-31T07:28:31.330Z,60.33
2019-03-31T07:30:59.459Z,56.03
2019-03-31T07:33:27.455Z,57.33
2019-03-31T07:35:55.488Z,46.90
2019-03-31T07:38:23.267Z,44.43
2019-03-31T07:40:51.186Z,40.53
2019-03-31T07:43:19.286Z,33.00
2019-03-31T07:45:47.271Z,39.43
2019-03-31T07:48:15.102Z,25.83
2019-03-31T07:50:42.854Z,27.10
2019-03-31T07:53:10.556Z,30.80
2019-03-31T07:55:38.381Z,27.80
2019-03-31T07:58:06.186Z,25.53
2019-03-31T08:00:33.908Z,21.17
2019-03-31T08:03:01.647Z,23.60
2019-03-31T08:05:33.381Z,22.33
2019-03-31T08:07:58.884Z,23.37
2019-03-31T08:10:26.713Z,24.63
2019-03-31T08:12:54.577Z,21.97
2019-03-31T08:15:22.350Z,20.53
2019-03-31T08:17:50.129Z,24.07
2019-03-31T08:20:17.969Z,21.80
2019-03-31T08:22:45.709Z,21.33
2019-03-31T08:25:16.465Z,25.13
2019-03-31T08:27:44.279Z,19.23
2019-03-31T08:30:12.166Z,22.20
2019-03-31T08:32:39.886Z,18.47
2019-03-31T08:35:07.685Z,18.50
2019-03-31T08:37:35.407Z,22.00
2019-03-31T08:40:03.221Z,18.20
2019-03-31T08:42:30.947Z,21.83
2019-03-31T08:44:58.793Z,21.73
2019-03-31T08:47:26.590Z,16.00
2019-03-31T08:49:55.956Z,18.83
2019-03-31T08:52:23.770Z,18.13
2019-03-31T08:54:51.571Z,19.40
2019-03-31T08:57:19.379Z,19.90
2019-03-31T08:59:47.119Z,27.23
2019-03-31T09:02:32.835Z,20.77
2019-03-31T09:05:00.647Z,16.87
2019-03-31T09:07:28.371Z,16.43
2019-03-31T09:09:56.173Z,17.17
2019-03-31T09:12:23.946Z,27.43
2019-03-31T09:14:51.814Z,19.23
2019-03-31T09:17:19.586Z,19.87
2019-03-31T09:19:47.376Z,16.70
2019-03-31T09:22:15.123Z,18.00
2019-03-31T09:24:43.073Z,15.77
2019-03-31T09:27:10.936Z,16.40
2019-03-31T09:29:38.730Z,22.63
2019-03-31T09:32:06.506Z,21.23
2019-03-31T09:34:34.273Z,19.37
2019-03-31T09:37:02.122Z,17.13
2019-03-31T09:39:30.000Z,20.77
2019-03-31T09:41:57.842Z,17.63
2019-03-31T09:44:25.717Z,18.87
2019-03-31T09:46:53.495Z,15.20
2019-03-31T09:49:21.290Z,17.17
2019-03-31T09:51:49.099Z,22.63
2019-03-31T09:54:16.983Z,18.43
2019-03-31T09:56:44.713Z,13.40
2019-03-31T09:59:12.484Z,19.93
2019-03-31T10:01:40.251Z,17.67
2019-03-31T10:04:08.055Z,14.17
2019-03-31T10:06:35.927Z,14.07
2019-03-31T10:09:03.969Z,16.23
2019-03-31T10:11:31.724Z,16.53
2019-03-31T10:13:59.851Z,14.43
2019-03-31T10:16:27.608Z,15.73
2019-03-31T10:18:55.569Z,15.00
2019-03-31T10:21:23.370Z,13.97
2019-03-31T10:23:51.296Z,16.13
2019-03-31T10:26:31.078Z,15.57
2019-03-31T10:28:48.574Z,17.60
2019-03-31T10:31:16.290Z,18.23
2019-03-31T10:33:43.997Z,14.60
2019-03-31T10:36:12.911Z,15.90
2019-03-31T10:38:40.754Z,16.13
2019-03-31T10:41:08.654Z,15.73
2019-03-31T10:43:36.553Z,18.23
2019-03-31T10:46:04.440Z,16.30
2019-03-31T10:48:32.239Z,20.60
2019-03-31T10:51:00.102Z,16.50
2019-03-31T10:53:27.829Z,16.60
2019-03-31T10:55:55.566Z,16.13
2019-03-31T10:58:23.460Z,14.17
2019-03-31T11:00:51.392Z,19.90
2019-03-31T11:03:19.107Z,15.70
2019-03-31T11:05:46.836Z,13.60
2019-03-31T11:08:14.672Z,16.70
2019-03-31T11:10:42.660Z,13.67
2019-03-31T11:13:10.374Z,17.00
2019-03-31T11:15:38.200Z,14.60
2019-03-31T11:18:06.073Z,16.73
2019-03-31T11:20:34.062Z,15.93
2019-03-31T11:23:19.265Z,17.47
2019-03-31T11:25:47.080Z,14.97
2019-03-31T11:28:14.827Z,14.37
2019-03-31T11:30:42.718Z,16.03
2019-03-31T11:33:10.483Z,13.77
2019-03-31T11:35:38.224Z,14.40
2019-03-31T11:38:12.827Z,12.53
2019-03-31T11:40:40.689Z,12.77
2019-03-31T11:43:08.523Z,11.47
2019-03-31T11:45:36.067Z,10.75
2019-03-31T11:48:04.130Z,11.90
2019-03-31T11:50:31.549Z,14.38
2019-03-31T11:52:59.072Z,14.90
2019-03-31T11:55:26.616Z,12.03
2019-03-31T11:57:54.061Z,11.38
2019-03-31T12:00:22.367Z,8.47
2019-03-31T12:02:49.803Z,8.08
2019-03-31T12:05:17.252Z,8.20
2019-03-31T12:07:47.133Z,9.33
2019-03-31T12:10:14.279Z,11.95
2019-03-31T12:12:41.834Z,11.43
2019-03-31T12:15:09.293Z,9.10
2019-03-31T12:17:36.810Z,10.20
2019-03-31T12:20:04.606Z,8.87
2019-03-31T12:22:32.256Z,8.18
2019-03-31T12:24:59.821Z,11.00
2019-03-31T12:27:27.400Z,12.18
2019-03-31T12:29:54.851Z,11.55
2019-03-31T12:32:22.468Z,9.25
2019-03-31T12:34:50.008Z,12.18
2019-03-31T12:37:17.580Z,17.98
2019-03-31T12:39:44.968Z,10.60
2019-03-31T12:42:12.959Z,8.90
2019-03-31T12:44:40.522Z,10.78
2019-03-31T12:47:07.969Z,8.70
2019-03-31T12:49:35.540Z,10.68
2019-03-31T12:52:02.981Z,11.53
2019-03-31T12:54:30.705Z,8.17
2019-03-31T12:56:58.137Z,7.97
2019-03-31T12:59:27.479Z,11.30
2019-03-31T13:01:54.868Z,8.25
2019-03-31T13:04:22.485Z,8.90
2019-03-31T13:06:50.017Z,6.17
2019-03-31T13:09:17.592Z,9.53
2019-03-31T13:11:45.043Z,8.33
2019-03-31T13:14:12.550Z,7.37
2019-03-31T13:16:40.020Z,8.58
2019-03-31T13:19:07.492Z,9.08
2019-03-31T13:21:35.214Z,8.43
2019-03-31T13:24:02.736Z,14.87
2019-03-31T13:26:30.506Z,10.15
2019-03-31T13:28:58.164Z,10.63
2019-03-31T13:31:25.621Z,18.85
2019-03-31T13:33:53.081Z,11.00
2019-03-31T13:36:20.588Z,11.05
2019-03-31T13:38:48.051Z,10.93
2019-03-31T13:41:15.560Z,11.22
2019-03-31T13:43:43.134Z,13.18
2019-03-31T13:46:10.559Z,11.80
2019-03-31T13:48:38.355Z,9.73
2019-03-31T13:51:06.011Z,9.50
2019-03-31T13:53:33.621Z,11.70
2019-03-31T13:56:01.145Z,9.85
2019-03-31T13:58:29.106Z,9.78
2019-03-31T14:00:58.113Z,10.30
2019-03-31T14:03:25.923Z,9.87
2019-03-31T14:05:53.557Z,9.78
2019-03-31T14:08:25.912Z,8.15
2019-03-31T14:10:50.283Z,8.65
2019-03-31T14:13:17.728Z,8.50
2019-03-31T14:15:45.449Z,10.20
2019-03-31T14:18:13.178Z,7.70
2019-03-31T14:20:40.638Z,30.85
2019-03-31T14:23:08.105Z,27.35
2019-03-31T14:25:35.739Z,13.35
2019-03-31T14:28:03.534Z,13.23
2019-03-31T14:30:31.281Z,11.70
2019-03-31T14:32:59.050Z,14.30
2019-03-31T14:35:26.934Z,12.97
2019-03-31T14:37:54.383Z,14.10
2019-03-31T14:40:21.848Z,11.75
2019-03-31T14:42:49.422Z,8.65
2019-03-31T14:45:16.975Z,14.98
2019-03-31T14:47:44.578Z,12.50
2019-03-31T14:50:12.083Z,15.03
2019-03-31T14:52:39.742Z,11.25
2019-03-31T14:55:07.472Z,11.87
2019-03-31T14:57:35.224Z,10.73
2019-03-31T15:00:14.170Z,11.47
2019-03-31T15:02:32.578Z,12.30
2019-03-31T15:05:00.450Z,15.00
2019-03-31T15:07:28.245Z,10.80
2019-03-31T15:09:56.039Z,11.20
2019-03-31T15:12:23.941Z,11.03
2019-03-31T15:14:51.827Z,12.70
2019-03-31T15:17:19.550Z,13.13
2019-03-31T15:19:47.554Z,15.30
2019-03-31T15:22:15.543Z,12.30
2019-03-31T15:24:43.281Z,13.97
2019-03-31T15:27:11.367Z,15.50
2019-03-31T15:29:39.139Z,15.13
2019-03-31T15:32:07.161Z,15.37
2019-03-31T15:34:34.903Z,15.07
2019-03-31T15:37:02.845Z,14.57
2019-03-31T15:39:30.601Z,15.63
2019-03-31T15:41:58.340Z,13.07
2019-03-31T15:44:26.117Z,16.33
2019-03-31T15:46:54.028Z,16.10
2019-03-31T15:49:21.885Z,12.57
2019-03-31T15:51:49.760Z,17.07
2019-03-31T15:54:17.635Z,14.13
2019-03-31T15:56:45.498Z,19.33
2019-03-31T15:59:13.420Z,18.43
2019-03-31T16:01:43.169Z,15.10
2019-03-31T16:04:11.623Z,16.87
2019-03-31T16:06:39.387Z,20.57
2019-03-31T16:09:07.217Z,15.93
2019-03-31T16:11:34.965Z,18.30
2019-03-31T16:14:02.816Z,18.33
2019-03-31T16:16:31.016Z,18.30
2019-03-31T16:18:58.845Z,21.00
2019-03-31T16:21:26.636Z,19.03
2019-03-31T16:23:54.878Z,20.20
2019-03-31T16:26:22.683Z,18.30
2019-03-31T16:28:50.646Z,17.37
2019-03-31T16:31:18.438Z,18.70
2019-03-31T16:33:46.280Z,19.77
2019-03-31T16:36:14.141Z,18.17
2019-03-31T16:38:41.872Z,15.27
2019-03-31T16:41:09.884Z,17.83
2019-03-31T16:43:37.883Z,24.60
2019-03-31T16:46:05.720Z,23.20
2019-03-31T16:48:33.488Z,17.23
2019-03-31T16:51:01.242Z,20.67
2019-03-31T16:53:29.001Z,19.87
2019-03-31T16:55:56.916Z,16.13
2019-03-31T16:58:24.858Z,25.10
2019-03-31T17:00:52.665Z,21.27
2019-03-31T17:03:20.496Z,21.83
2019-03-31T17:05:48.362Z,32.03
2019-03-31T17:08:16.162Z,24.70
2019-03-31T17:10:44.091Z,21.47
2019-03-31T17:13:11.990Z,25.00
2019-03-31T17:15:39.745Z,23.43
2019-03-31T17:18:07.486Z,19.60
2019-03-31T17:20:35.264Z,24.47
2019-03-31T17:23:03.148Z,23.30
2019-03-31T17:25:30.916Z,21.27
2019-03-31T17:27:58.777Z,22.33
2019-03-31T17:30:26.510Z,25.97
2019-03-31T17:32:54.326Z,29.27
2019-03-31T17:35:22.281Z,28.60
2019-03-31T17:37:50.355Z,41.53
2019-03-31T17:40:18.157Z,33.03
2019-03-31T17:42:47.835Z,29.37
2019-03-31T17:45:17.283Z,25.77
2019-03-31T17:47:45.318Z,22.80
2019-03-31T17:50:13.106Z,24.53
2019-03-31T17:52:40.845Z,25.27
2019-03-31T17:55:08.616Z,26.67
2019-03-31T17:57:36.384Z,44.80
2019-03-31T18:00:04.863Z,37.07
2019-03-31T18:02:32.623Z,46.70
2019-03-31T18:05:00.588Z,36.50
2019-03-31T18:07:28.486Z,37.70
2019-03-31T18:09:56.411Z,29.90
2019-03-31T18:12:24.209Z,29.17
2019-03-31T18:14:51.930Z,32.07
2019-03-31T18:17:19.759Z,35.97
2019-03-31T18:19:47.608Z,31.50
2019-03-31T18:22:16.971Z,37.33
2019-03-31T18:24:45.239Z,35.93
2019-03-31T18:27:13.178Z,42.80
2019-03-31T18:29:41.036Z,34.67
2019-03-31T18:32:08.942Z,40.43
2019-03-31T18:34:38.401Z,37.97
2019-03-31T18:37:06.166Z,37.10
2019-03-31T18:39:33.963Z,37.43
2019-03-31T18:42:01.916Z,44.53
2019-03-31T18:44:29.716Z,44.67
2019-03-31T18:46:57.663Z,46.23
2019-03-31T18:49:25.401Z,41.13
2019-03-31T18:51:53.191Z,41.07
2019-03-31T18:54:47.351Z,43.03
2019-03-31T18:57:34.009Z,45.17
2019-03-31T19:00:19.314Z,38.30
2019-03-31T19:03:05.973Z,39.47
2019-03-31T19:05:58.418Z,43.20
2019-03-31T19:08:57.484Z,60.40
2019-03-31T19:11:44.197Z,65.03
2019-03-31T19:14:33.603Z,47.07
2019-03-31T19:17:13.689Z,47.63
2019-03-31T19:20:09.315Z,47.27
2019-03-31T19:22:49.214Z,51.57
2019-03-31T19:25:38.974Z,44.77
2019-03-31T19:28:25.736Z,44.37
2019-03-31T19:31:11.226Z,52.63
2019-03-31T19:33:56.580Z,46.77
2019-03-31T19:36:36.030Z,50.70
2019-03-31T19:39:38.025Z,40.90
2019-03-31T19:42:33.603Z,45.55
2019-03-31T19:45:38.167Z,63.80
2019-03-31T19:48:24.637Z,43.98
2019-03-31T19:51:23.354Z,41.87
2019-03-31T19:54:01.274Z,42.87
2019-03-31T19:56:51.001Z,42.73
2019-03-31T19:59:46.747Z,40.13
2019-03-31T20:02:40.128Z,39.00
2019-03-31T20:05:31.625Z,38.43
2019-03-31T20:08:19.460Z,41.73
2019-03-31T20:11:04.831Z,36.73
2019-03-31T20:13:48.000Z,37.85
2019-03-31T20:16:33.043Z,32.80
2019-03-31T20:19:18.245Z,30.90
2019-03-31T20:22:03.132Z,35.83
2019-03-31T20:24:49.414Z,33.90
2019-03-31T20:27:38.536Z,30.92
2019-03-31T20:30:17.939Z,34.43
2019-03-31T20:33:07.281Z,30.23
2019-03-31T20:35:59.142Z,31.97
2019-03-31T20:38:36.886Z,33.07
2019-03-31T20:41:29.624Z,35.67
2019-03-31T20:43:57.727Z,36.47
2019-03-31T20:46:27.310Z,36.23
2019-03-31T20:48:54.986Z,35.57
2019-03-31T20:51:22.766Z,35.00
2019-03-31T20:53:50.633Z,32.83
2019-03-31T20:56:18.548Z,37.23
2019-03-31T20:58:46.285Z,33.07
2019-03-31T21:01:17.077Z,34.20
2019-03-31T21:03:47.968Z,37.73
2019-03-31T21:06:15.832Z,34.97
2019-03-31T21:08:43.572Z,33.07
2019-03-31T21:11:11.449Z,40.70
2019-03-31T21:13:39.215Z,37.60
2019-03-31T21:16:06.964Z,33.67
2019-03-31T21:18:34.687Z,33.80
2019-03-31T21:21:02.440Z,33.10
2019-03-31T21:23:30.239Z,35.43
2019-03-31T21:25:57.965Z,34.87
2019-03-31T21:28:25.709Z,36.93
2019-03-31T21:30:53.458Z,35.27
2019-03-31T21:33:21.191Z,35.47
2019-03-31T21:35:48.921Z,33.93
2019-03-31T21:38:16.880Z,36.80
2019-03-31T21:40:44.748Z,36.23
2019-03-31T21:43:12.501Z,35.30
2019-03-31T21:45:40.284Z,34.43
2019-03-31T21:48:08.006Z,35.00
2019-03-31T21:50:35.791Z,32.87
2019-03-31T21:53:03.658Z,30.60
2019-03-31T21:55:31.375Z,30.67
2019-03-31T21:57:59.213Z,37.87
2019-03-31T22:00:45.840Z,31.57
2019-03-31T22:03:13.550Z,35.03
2019-03-31T22:05:41.378Z,33.37
2019-03-31T22:08:09.130Z,31.47
2019-03-31T22:10:36.846Z,32.47
2019-03-31T22:13:04.572Z,34.33
2019-03-31T22:15:32.490Z,31.00
2019-03-31T22:18:00.340Z,30.20
2019-03-31T22:20:28.202Z,31.13
2019-03-31T22:22:56.022Z,29.93
2019-03-31T22:25:23.760Z,31.00
2019-03-31T22:27:51.666Z,29.97
2019-03-31T22:30:19.811Z,34.13
2019-03-31T22:32:47.523Z,52.77
2019-03-31T22:35:15.245Z,55.73
2019-03-31T22:37:43.034Z,62.43
2019-03-31T22:40:10.900Z,64.07
2019-03-31T22:42:38.868Z,72.10
2019-03-31T22:45:07.104Z,80.50
2019-03-31T22:47:34.860Z,84.13
2019-03-31T22:50:02.691Z,82.57
2019-03-31T22:52:30.415Z,83.90
2019-03-31T22:54:58.342Z,91.23
2019-03-31T22:57:26.080Z,87.87
2019-03-31T22:59:53.816Z,84.87
2019-03-31T23:02:21.545Z,85.10
2019-03-31T23:04:49.293Z,80.90
2019-03-31T23:07:17.152Z,81.73
2019-03-31T23:09:45.129Z,79.13
2019-03-31T23:12:12.850Z,86.23
2019-03-31T23:14:40.647Z,78.67
2019-03-31T23:17:08.480Z,77.27
2019-03-31T23:19:36.231Z,78.40
2019-03-31T23:22:04.145Z,77.43
2019-03-31T23:24:31.904Z,73.87
2019-03-31T23:26:59.674Z,83.23
2019-03-31T23:29:27.438Z,72.23
2019-03-31T23:31:55.248Z,75.97
2019-03-31T23:34:23.024Z,81.70
2019-03-31T23:36:50.875Z,85.47
2019-03-31T23:39:18.666Z,80.00
2019-03-31T23:41:46.475Z,80.77
2019-03-31T23:44:14.364Z,78.13
2019-03-31T23:46:42.068Z,78.57
2019-03-31T23:49:09.951Z,84.20
2019-03-31T23:51:37.758Z,79.23
2019-03-31T23:54:05.479Z,78.87
2019-03-31T23:56:33.427Z,74.63
2019-03-31T23:59:01.226Z,76.07
